Time;durP1;ratioP1;P1;durP2;ratioP2;P2;SDS_P1;SDS_P2;PMS_P1;PMS_P2;Temp;Humidity;BMP_temperature;BMP_pressure;BME280_temperature;BME280_humidity;BME280_pressure;Samples;Min_cycle;Max_cycle;Signal;HPM_P1;HPM_P2
2022/09/09 00:00:35;;;;;;;4.80;1.65;;;15.90;76.50;;;14.77;100.00;95795.97;5026245;28;20530;-62
2022/09/09 00:03:12;;;;;;;2.28;1.60;;;15.90;76.50;;;14.74;100.00;95802.53;5021612;28;20522;-62
2022/09/09 00:06:13;;;;;;;3.25;1.52;;;15.80;76.30;;;14.68;100.00;95798.09;5022608;28;20132;-62
2022/09/09 00:09:09;;;;;;;2.83;1.40;;;15.80;76.40;;;14.66;100.00;95802.81;4999753;28;20045;-62
2022/09/09 00:11:51;;;;;;;3.78;1.70;;;15.80;76.50;;;14.60;100.00;95804.50;5002407;28;20056;-62
2022/09/09 00:14:29;;;;;;;4.53;1.67;;;15.80;76.70;;;14.60;100.00;95809.81;4985013;28;20052;-62
2022/09/09 00:16:59;;;;;;;3.17;1.67;;;15.70;76.70;;;14.60;100.00;95807.16;4993749;28;20089;-62
2022/09/09 00:19:53;;;;;;;3.00;1.40;;;15.80;76.70;;;14.60;100.00;95801.88;4988665;28;20038;-62
2022/09/09 00:22:22;;;;;;;3.53;1.60;;;15.80;76.80;;;14.61;100.00;95792.09;4973603;28;20045;-62
2022/09/09 00:24:51;;;;;;;4.13;1.80;;;15.80;77.10;;;14.64;100.00;95792.44;4989425;28;20490;-62
2022/09/09 00:27:29;;;;;;;3.75;2.00;;;15.80;77.10;;;14.64;100.00;95796.94;5016654;28;20041;-62
2022/09/09 00:30:19;;;;;;;4.53;1.98;;;15.80;77.40;;;14.64;100.00;95786.34;4979183;28;20063;-62
2022/09/09 00:32:46;;;;;;;4.53;1.70;;;15.80;77.50;;;14.63;100.00;95785.53;4996238;28;20084;-62
2022/09/09 00:35:32;;;;;;;3.40;1.75;;;15.80;77.50;;;14.65;100.00;95785.31;5005537;28;20041;-62
2022/09/09 00:38:23;;;;;;;3.67;1.77;;;15.90;77.40;;;14.64;100.00;95789.81;4998851;28;20050;-62
2022/09/09 00:40:55;;;;;;;3.45;1.90;;;15.80;77.20;;;14.61;100.00;95784.97;5026051;28;20026;-62
2022/09/09 00:43:38;;;;;;;3.10;1.73;;;15.80;77.30;;;14.61;100.00;95786.78;4988152;28;20057;-62
2022/09/09 00:46:36;;;;;;;4.68;2.05;;;15.80;77.30;;;14.61;100.00;95792.91;4960942;28;20087;-62
2022/09/09 00:49:23;;;;;;;3.10;1.80;;;15.80;77.30;;;14.56;100.00;95781.38;5017673;28;20029;-62
2022/09/09 00:52:26;;;;;;;3.55;2.00;;;15.80;77.20;;;14.58;100.00;95787.25;5019614;28;20029;-62
2022/09/09 00:55:02;;;;;;;4.75;1.73;;;15.80;77.10;;;14.56;100.00;95784.00;5018254;28;20459;-62
2022/09/09 00:57:31;;;;;;;2.45;1.42;;;15.70;77.30;;;14.55;100.00;95788.50;5023519;28;20064;-62
2022/09/09 01:00:14;;;;;;;4.82;1.58;;;15.80;77.30;;;14.55;100.00;95788.50;5000779;28;20052;-62
2022/09/09 01:03:27;;;;;;;3.97;1.90;;;15.70;77.30;;;14.56;100.00;95784.81;5012206;28;20057;-62
2022/09/09 01:06:32;;;;;;;3.15;1.42;;;15.70;77.20;;;14.53;100.00;95790.56;5018262;28;20060;-62
2022/09/09 01:09:19;;;;;;;2.00;1.42;;;15.70;77.40;;;14.53;100.00;95790.56;5017843;28;20045;-62
2022/09/09 01:12:15;;;;;;;3.80;1.85;;;15.70;77.40;;;14.53;100.00;95779.97;5019059;28;20041;-62
2022/09/09 01:14:55;;;;;;;2.78;1.80;;;15.70;77.50;;;14.52;100.00;95777.53;4985701;28;20117;-62
2022/09/09 01:17:24;;;;;;;1.75;1.27;;;15.60;77.40;;;14.50;100.00;95780.41;4984158;28;20037;-62
2022/09/09 01:20:28;;;;;;;3.72;1.65;;;15.70;77.50;;;14.50;100.00;95780.41;4988313;28;20079;-62
2022/09/09 01:23:18;;;;;;;2.38;1.50;;;15.70;77.60;;;14.50;100.00;95780.41;5015942;28;20422;-63
2022/09/09 01:25:44;;;;;;;2.70;1.65;;;15.60;77.40;;;14.48;100.00;95777.16;5008519;28;20062;-63
2022/09/09 01:28:26;;;;;;;2.50;1.65;;;15.60;77.70;;;14.49;100.00;95778.00;5000328;28;20538;-63
2022/09/09 01:30:52;;;;;;;3.38;1.58;;;15.70;77.70;;;14.48;100.00;95779.00;4984105;28;20041;-63
2022/09/09 01:33:18;;;;;;;3.67;1.77;;;15.70;77.70;;;14.48;100.00;95779.00;4995521;28;20026;-63
2022/09/09 01:36:00;;;;;;;3.25;1.60;;;15.70;77.70;;;14.47;100.00;95780.84;4999434;28;20050;-67
2022/09/09 01:38:26;;;;;;;2.78;1.55;;;15.60;77.40;;;14.47;100.00;95783.47;4996140;28;20053;-63
2022/09/09 01:40:52;;;;;;;3.83;1.88;;;15.60;77.50;;;14.48;100.00;95787.75;4988000;28;20029;-63
2022/09/09 01:43:20;;;;;;;3.65;1.70;;;15.70;77.80;;;14.49;100.00;95792.03;4997465;28;20048;-63
2022/09/09 01:45:45;;;;;;;2.60;1.80;;;15.70;77.80;;;14.47;100.00;95786.13;5006312;28;20556;-63
2022/09/09 01:48:12;;;;;;;3.58;1.40;;;15.70;77.70;;;14.50;100.00;95793.66;4984058;28;20125;-63
2022/09/09 01:50:37;;;;;;;4.45;1.20;;;15.70;77.30;;;14.49;100.00;95794.69;5012683;28;20045;-63
2022/09/09 01:53:04;;;;;;;2.97;1.50;;;15.70;77.40;;;14.50;100.00;95788.34;5019738;28;20032;-63
2022/09/09 01:55:37;;;;;;;2.50;1.40;;;15.70;77.60;;;14.51;100.00;95791.81;5023663;28;20041;-63
2022/09/09 01:58:21;;;;;;;2.70;1.48;;;15.70;77.60;;;14.51;100.00;95792.63;4986361;28;20120;-62
2022/09/09 02:01:19;;;;;;;3.10;1.63;;;15.70;77.70;;;14.52;100.00;95788.94;5018652;28;20041;-63
2022/09/09 02:03:52;;;;;;;3.67;1.48;;;15.70;77.70;;;14.51;100.00;95789.97;5029079;28;20048;-63
2022/09/09 02:06:38;;;;;;;2.42;1.33;;;15.70;78.00;;;14.53;100.00;95789.75;5002281;28;20033;-63
2022/09/09 02:09:06;;;;;;;4.45;1.65;;;15.70;77.80;;;14.51;100.00;95787.31;5003121;28;20187;-63
2022/09/09 02:11:32;;;;;;;2.95;1.52;;;15.70;77.90;;;14.52;100.00;95783.66;5021599;28;20036;-63
2022/09/09 02:14:01;;;;;;;2.58;1.42;;;15.70;78.00;;;14.50;100.00;95780.41;5005670;28;20182;-62
2022/09/09 02:16:52;;;;;;;3.53;1.63;;;15.70;77.70;;;14.50;100.00;95775.13;4989972;28;20097;-63
2022/09/09 02:19:26;;;;;;;4.50;1.20;;;15.70;77.90;;;14.46;100.00;95768.63;5001849;28;20045;-63
2022/09/09 02:21:53;;;;;;;2.40;1.50;;;15.70;77.70;;;14.44;100.00;95775.97;5005632;28;20427;-63
2022/09/09 02:24:19;;;;;;;3.58;1.77;;;15.70;77.60;;;14.44;100.00;95768.03;4992868;28;20058;-63
2022/09/09 02:26:47;;;;;;;2.63;1.48;;;15.70;77.70;;;14.45;100.00;95767.00;5020802;28;20453;-63
2022/09/09 02:29:20;;;;;;;2.75;1.33;;;15.70;77.90;;;14.45;100.00;95772.31;4989447;28;20482;-63
2022/09/09 02:31:47;;;;;;;2.33;1.30;;;15.70;78.00;;;14.45;100.00;95772.31;4989355;28;20081;-62
2022/09/09 02:34:12;;;;;;;3.88;1.80;;;15.60;78.00;;;14.43;100.00;95771.72;4993471;28;20145;-63
2022/09/09 02:36:39;;;;;;;3.05;1.45;;;15.70;78.10;;;14.42;100.00;95772.72;4999310;28;20045;-62
2022/09/09 02:39:07;;;;;;;5.05;4.05;;;15.60;78.20;;;14.42;100.00;95770.06;5031481;28;20511;-62
2022/09/09 02:41:35;;;;;;;20.63;15.73;;;15.70;78.30;;;14.43;100.00;95765.59;4990955;28;20518;-63
2022/09/09 02:44:01;;;;;;;12.43;10.38;;;15.70;79.00;;;14.40;100.00;95761.56;5000582;28;20042;-63
2022/09/09 02:46:51;;;;;;;13.15;10.15;;;15.70;78.90;;;14.44;100.00;95770.69;4984122;28;20716;-63
2022/09/09 02:49:45;;;;;;;30.90;25.83;;;15.70;79.10;;;14.48;100.00;95776.34;4981831;28;20045;-63
2022/09/09 02:52:17;;;;;;;22.13;18.27;;;15.70;79.10;;;14.46;100.00;95768.63;4997685;28;20086;-62
2022/09/09 02:54:43;;;;;;;8.05;6.15;;;15.70;78.90;;;14.47;100.00;95772.09;4973779;28;20099;-62
2022/09/09 02:57:23;;;;;;;5.15;3.72;;;15.70;78.80;;;14.47;100.00;95770.25;4984240;28;20506;-62
2022/09/09 02:59:49;;;;;;;6.57;5.00;;;15.70;78.70;;;14.45;100.00;95760.91;5018816;28;20055;-62
2022/09/09 03:02:15;;;;;;;10.88;7.38;;;15.70;78.80;;;14.44;100.00;95770.69;4998530;28;20281;-62
2022/09/09 03:04:44;;;;;;;16.95;13.45;;;15.70;78.60;;;14.40;100.00;95762.34;5016276;28;20129;-62
2022/09/09 03:07:10;;;;;;;16.20;10.88;;;15.60;78.50;;;14.36;100.00;95752.44;5004637;28;20043;-62
2022/09/09 03:09:36;;;;;;;9.35;7.25;;;15.60;78.60;;;14.34;100.00;95754.50;5014740;28;20471;-62
2022/09/09 03:12:04;;;;;;;11.02;8.48;;;15.60;78.80;;;14.34;100.00;95754.50;5034962;28;20047;-62
2022/09/09 03:14:30;;;;;;;6.80;4.07;;;15.60;79.00;;;14.34;100.00;95754.50;5015797;28;20042;-62
2022/09/09 03:16:57;;;;;;;9.82;7.30;;;15.60;78.70;;;14.36;100.00;95757.72;4998550;28;20026;-62
2022/09/09 03:19:23;;;;;;;11.43;8.52;;;15.60;79.00;;;14.37;100.00;95751.41;5009162;28;20033;-62
2022/09/09 03:21:49;;;;;;;10.40;7.47;;;15.70;79.00;;;14.37;100.00;95751.41;5001796;28;20486;-61
2022/09/09 03:24:15;;;;;;;5.68;4.43;;;15.60;79.10;;;14.40;100.00;95758.91;5014294;28;20655;-62
2022/09/09 03:26:44;;;;;;;4.07;2.35;;;15.70;79.00;;;14.42;100.00;95748.91;5015975;28;20042;-62
2022/09/09 03:29:12;;;;;;;3.97;2.30;;;15.70;79.00;;;14.42;100.00;95743.63;5002278;28;20030;-62
2022/09/09 03:31:38;;;;;;;21.70;17.23;;;15.80;79.00;;;14.46;100.00;95750.09;4989596;28;20057;-62
2022/09/09 03:34:04;;;;;;;9.88;7.88;;;15.80;79.30;;;14.51;100.00;95755.56;5002911;28;20516;-62
2022/09/09 03:36:30;;;;;;;8.27;5.53;;;15.80;79.20;;;14.53;100.00;95758.78;5018411;28;20045;-62
2022/09/09 03:38:56;;;;;;;5.68;3.50;;;15.90;79.00;;;14.54;100.00;95760.41;4993657;28;20046;-62
2022/09/09 03:41:23;;;;;;;6.82;5.90;;;15.90;78.40;;;14.56;100.00;95753.06;4996909;28;20506;-62
2022/09/09 03:43:53;;;;;;;4.47;3.17;;;15.90;78.60;;;14.58;100.00;95740.41;4997998;28;20040;-62
2022/09/09 03:46:23;;;;;;;4.68;2.20;;;16.00;78.50;;;14.60;100.00;95741.00;5017353;28;20069;-62
2022/09/09 03:48:48;;;;;;;5.47;1.80;;;16.00;78.50;;;14.63;100.00;95743.19;5009337;28;20026;-62
2022/09/09 03:51:15;;;;;;;2.92;1.65;;;16.00;78.50;;;14.63;100.00;95737.09;4978131;28;20137;-62
2022/09/09 03:53:41;;;;;;;3.03;1.40;;;15.90;78.40;;;14.63;100.00;95737.88;4997868;28;20029;-62
2022/09/09 03:56:07;;;;;;;3.10;1.50;;;16.00;78.20;;;14.64;100.00;95742.16;4983480;28;20052;-62
2022/09/09 03:58:34;;;;;;;4.40;1.50;;;16.00;78.00;;;14.64;100.00;95744.81;4996184;28;20577;-62
2022/09/09 04:01:09;;;;;;;3.67;1.70;;;16.00;78.00;;;14.66;100.00;95740.09;5003900;28;20129;-62
2022/09/09 04:03:35;;;;;;;3.85;1.25;;;16.00;78.10;;;14.68;100.00;95742.50;5000776;28;20042;-62
2022/09/09 04:06:06;;;;;;;4.10;1.70;;;16.10;78.30;;;14.68;100.00;95735.38;5009002;28;20144;-63
2022/09/09 04:08:31;;;;;;;;;;;16.00;78.20;;;14.66;100.00;95737.44;4955531;28;20100;-63
2022/09/09 04:10:58;;;;;;;1.80;1.30;;;16.00;78.20;;;14.64;100.00;95738.69;4997883;28;20050;-63
2022/09/09 04:13:24;;;;;;;4.47;1.40;;;16.00;78.40;;;14.65;100.00;95735.81;5017001;28;20452;-64
2022/09/09 04:15:55;;;;;;;3.03;1.75;;;16.00;78.30;;;14.64;100.00;95733.41;5014338;28;20042;-63
2022/09/09 04:18:21;;;;;;;4.18;1.48;;;16.00;78.60;;;14.63;100.00;95737.09;4969040;28;20113;-63
2022/09/09 04:20:51;;;;;;;3.67;1.70;;;16.00;78.70;;;14.63;100.00;95737.88;4953585;28;20758;-63
2022/09/09 04:23:18;;;;;;;3.75;1.70;;;16.00;78.80;;;14.63;100.00;95735.25;4988677;28;20131;-63
2022/09/09 04:25:46;;;;;;;3.85;1.70;;;16.00;78.60;;;14.63;100.00;95737.09;4955037;28;20042;-63
2022/09/09 04:28:15;;;;;;;4.80;1.85;;;16.00;78.60;;;14.63;100.00;95735.25;4993328;28;20394;-64
2022/09/09 04:30:42;;;;;;;7.28;1.77;;;15.90;78.80;;;14.61;100.00;95749.72;4983557;28;20030;-64
2022/09/09 04:33:08;;;;;;;3.85;1.60;;;15.90;78.80;;;14.61;100.00;95734.66;4998435;28;20678;-63
2022/09/09 04:35:34;;;;;;;3.47;2.28;;;16.00;78.80;;;14.63;100.00;95743.19;4982633;28;20034;-64
2022/09/09 04:37:59;;;;;;;5.75;3.40;;;16.00;78.90;;;14.64;100.00;95734.22;4982601;28;20045;-64
2022/09/09 04:40:25;;;;;;;15.80;13.40;;;16.00;79.10;;;14.66;100.00;95736.63;4991497;28;20034;-63
2022/09/09 04:42:51;;;;;;;5.75;3.78;;;16.00;79.20;;;14.65;100.00;95727.06;5000199;28;20172;-63
2022/09/09 04:45:18;;;;;;;5.07;2.75;;;16.00;79.20;;;14.65;100.00;95719.94;5002352;28;20144;-63
2022/09/09 04:47:44;;;;;;;3.40;1.92;;;16.00;79.10;;;14.67;100.00;95711.78;5021297;28;20068;-63
2022/09/09 04:50:09;;;;;;;5.53;1.90;;;16.10;79.00;;;14.67;100.00;95717.88;5013823;28;20104;-63
2022/09/09 04:52:36;;;;;;;4.38;1.58;;;16.10;79.10;;;14.69;100.00;95722.94;5014776;28;20037;-63
2022/09/09 04:55:02;;;;;;;3.90;1.77;;;16.10;79.10;;;14.70;100.00;95727.22;5017586;28;20415;-63
2022/09/09 04:57:28;;;;;;;2.90;1.77;;;16.10;79.30;;;14.72;100.00;95729.66;5009126;28;20030;-63
2022/09/09 04:59:54;;;;;;;2.75;1.58;;;16.10;79.20;;;14.72;100.00;95734.97;5004803;28;20034;-63
2022/09/09 05:02:20;;;;;;;3.10;1.52;;;16.10;79.20;;;14.72;100.00;95732.31;5001067;28;20412;-63
2022/09/09 05:04:49;;;;;;;3.25;1.70;;;16.10;79.20;;;14.70;100.00;95721.91;5006493;28;20098;-64
2022/09/09 05:07:15;;;;;;;3.60;1.67;;;16.10;79.20;;;14.67;100.00;95728.47;4995332;28;20531;-63
2022/09/09 05:09:40;;;;;;;3.13;1.50;;;16.10;79.10;;;14.68;100.00;95727.44;4986581;28;20034;-63
2022/09/09 05:12:07;;;;;;;3.45;1.52;;;16.10;79.00;;;14.67;100.00;95733.75;5013101;28;20065;-63
2022/09/09 05:14:32;;;;;;;2.42;1.55;;;16.10;78.70;;;14.66;100.00;95734.00;4984518;28;20046;-63
2022/09/09 05:16:58;;;;;;;5.07;1.73;;;16.00;78.90;;;14.66;100.00;95731.34;4996433;28;20563;-63
2022/09/09 05:19:24;;;;;;;4.05;1.60;;;16.10;78.70;;;14.69;100.00;95733.53;5015619;28;20500;-63
2022/09/09 05:21:50;;;;;;;3.05;1.40;;;16.10;78.90;;;14.69;100.00;95726.41;5008282;28;20125;-63
2022/09/09 05:24:16;;;;;;;17.35;14.35;;;16.10;78.90;;;14.70;100.00;95717.44;4987338;28;20109;-63
2022/09/09 05:26:43;;;;;;;21.73;16.10;;;16.10;79.10;;;14.72;100.00;95730.47;5022186;28;20048;-63
2022/09/09 05:29:09;;;;;;;8.60;5.90;;;16.20;79.10;;;14.76;100.00;95744.06;5004841;28;20566;-62
2022/09/09 05:31:34;;;;;;;6.70;5.80;;;16.10;79.10;;;14.77;100.00;95748.31;5023004;28;20037;-63
2022/09/09 05:34:00;;;;;;;6.68;4.65;;;16.20;79.00;;;14.77;100.00;95748.31;4992527;28;20514;-63
2022/09/09 05:36:26;;;;;;;6.82;2.75;;;16.20;79.10;;;14.79;100.00;95747.06;4993812;28;20042;-63
2022/09/09 05:38:53;;;;;;;4.20;2.20;;;16.20;79.10;;;14.79;100.00;95741.78;5026191;28;20569;-63
2022/09/09 05:41:19;;;;;;;3.97;2.28;;;16.30;79.10;;;14.86;100.00;95742.47;5009509;28;20037;-63
2022/09/09 05:43:46;;;;;;;6.88;2.20;;;16.40;78.80;;;14.88;100.00;95743.06;5021394;28;20041;-63
2022/09/09 05:46:17;;;;;;;3.55;2.00;;;16.40;78.60;;;14.94;100.00;95749.31;5023064;28;20119;-64
2022/09/09 05:48:49;;;;;;;4.07;1.98;;;16.50;78.60;;;15.01;100.00;95750.03;5008872;28;20033;-62
2022/09/09 05:51:18;;;;;;;5.72;1.80;;;16.60;78.40;;;15.09;100.00;95760.31;4995056;28;20109;-63
2022/09/09 05:53:44;;;;;;;5.50;1.83;;;16.60;78.10;;;15.13;100.00;95755.34;4998323;28;20053;-63
2022/09/09 05:56:18;;;;;;;3.88;1.80;;;16.70;77.90;;;15.19;100.00;95760.59;5001228;28;20080;-62
2022/09/09 05:58:46;;;;;;;2.38;1.60;;;16.70;77.50;;;15.21;100.00;95761.16;5025380;28;20035;-63
2022/09/09 06:01:33;;;;;;;3.70;1.90;;;16.80;77.50;;;15.28;100.00;95756.56;4996732;28;20038;-62
2022/09/09 06:04:00;;;;;;;4.07;1.50;;;16.80;77.50;;;15.28;100.00;95759.22;4986386;28;20034;-63
2022/09/09 06:06:29;;;;;;;4.10;1.63;;;16.80;77.60;;;15.30;100.00;95746.53;4971430;28;21387;-63
2022/09/09 06:08:57;;;;;;;3.25;1.90;;;16.80;77.50;;;15.34;100.00;95741.59;5011155;28;20053;-63
2022/09/09 06:11:32;;;;;;;6.70;2.05;;;16.80;78.00;;;15.39;100.00;95746.22;4985637;28;20026;-63
2022/09/09 06:13:58;;;;;;;2.83;1.83;;;16.90;78.00;;;15.40;100.00;95742.56;4995582;28;20503;-63
2022/09/09 06:16:26;;;;;;;5.72;1.80;;;16.90;77.50;;;15.39;100.00;95748.84;4971729;28;20521;-64
2022/09/09 06:18:53;;;;;;;8.38;1.85;;;16.90;77.50;;;15.44;100.00;95749.81;4992555;28;20462;-63
2022/09/09 06:21:30;;;;;;;4.15;1.70;;;16.90;77.50;;;15.48;100.00;95760.75;5008347;28;20041;-63
2022/09/09 06:23:56;;;;;;;4.22;1.92;;;16.90;77.50;;;15.49;100.00;95751.78;5012358;28;20167;-63
2022/09/09 06:26:25;;;;;;;7.78;1.88;;;17.00;77.30;;;15.52;100.00;95751.31;4980715;28;20133;-63
2022/09/09 06:28:52;;;;;;;3.08;1.63;;;17.00;76.90;;;15.55;100.00;95750.84;5009704;28;20402;-63
2022/09/09 06:31:22;;;;;;;3.78;1.55;;;17.10;77.10;;;15.59;100.00;95752.03;5002644;28;20122;-64
2022/09/09 06:33:53;;;;;;;2.97;1.52;;;17.10;77.40;;;15.65;100.00;95745.84;5005352;28;20037;-63
2022/09/09 06:36:19;;;;;;;3.05;1.70;;;17.10;76.60;;;15.66;100.00;95741.34;4987293;28;20030;-63
2022/09/09 06:38:46;;;;;;;3.50;1.65;;;17.20;76.70;;;15.72;100.00;95743.88;5004007;28;20041;-64
2022/09/09 06:41:12;;;;;;;5.65;1.98;;;17.40;76.90;;;15.79;100.00;95749.88;5008210;28;20116;-62
2022/09/09 06:43:38;;;;;;;5.75;2.00;;;17.40;76.00;;;15.87;100.00;95743.44;5004775;28;20084;-63
2022/09/09 06:46:27;;;;;;;6.45;2.25;;;17.60;75.50;;;15.96;100.00;95762.47;5021862;28;20029;-66
2022/09/09 06:48:55;;;;;;;4.28;2.30;;;17.60;75.10;;;16.03;100.00;95774.56;5005280;28;20129;-63
2022/09/09 06:51:22;;;;;;;7.35;2.38;;;17.60;75.10;;;16.05;100.00;95779.63;4998229;28;20095;-63
2022/09/09 06:53:50;;;;;;;3.63;1.80;;;17.50;75.90;;;16.07;100.00;95793.47;4971178;28;20105;-63
2022/09/09 06:56:24;;;;;;;5.35;1.88;;;17.50;75.90;;;16.08;100.00;95795.94;4972494;28;20037;-63
2022/09/09 06:58:51;;;;;;;2.65;1.67;;;17.50;76.60;;;16.09;100.00;95804.69;4988349;28;20030;-63
2022/09/09 07:01:23;;;;;;;5.00;1.90;;;17.50;77.00;;;16.09;100.00;95810.81;4972332;28;20045;-63
2022/09/09 07:03:50;;;;;;;5.65;1.45;;;17.50;77.50;;;16.05;100.00;95824.72;5006537;28;20298;-63
2022/09/09 07:06:26;;;;;;;2.70;1.50;;;17.50;78.00;;;16.01;100.00;95832.34;4971934;28;20454;-64
2022/09/09 07:08:57;;;;;;;3.00;1.95;;;17.30;78.20;;;15.94;100.00;95839.63;5005473;28;20466;-64
2022/09/09 07:11:30;;;;;;;5.10;1.70;;;17.20;78.70;;;15.88;100.00;95840.53;4969684;28;20395;-63
2022/09/09 07:13:59;;;;;;;7.38;1.80;;;17.10;79.40;;;15.83;100.00;95854.47;5001052;28;20115;-64
2022/09/09 07:16:25;;;;;;;2.53;1.35;;;17.10;79.00;;;15.81;100.00;95853.06;4987707;28;20049;-64
2022/09/09 07:18:52;;;;;;;3.65;1.40;;;17.00;79.30;;;15.78;100.00;95850.88;4994536;28;20044;-63
2022/09/09 07:21:18;;;;;;;4.63;1.70;;;17.10;79.30;;;15.76;100.00;95861.72;5005846;28;20029;-63
2022/09/09 07:23:44;;;;;;;5.00;1.50;;;17.20;79.40;;;15.79;100.00;95855.94;5000262;28;20026;-63
2022/09/09 07:26:14;;;;;;;3.58;1.50;;;17.10;78.90;;;15.78;100.00;95857.00;4990597;28;20038;-64
2022/09/09 07:28:41;;;;;;;3.83;1.50;;;17.10;79.10;;;15.79;100.00;95848.00;5018146;28;20030;-64
2022/09/09 07:31:07;;;;;;;2.70;1.38;;;17.20;79.30;;;15.78;100.00;95846.38;5002950;28;20065;-64
2022/09/09 07:33:34;;;;;;;2.72;1.40;;;17.30;79.20;;;15.82;100.00;95842.22;4959816;28;20065;-64
2022/09/09 07:36:13;;;;;;;2.72;1.33;;;17.40;79.20;;;15.90;100.00;95839.28;5017064;28;20065;-64
2022/09/09 07:38:45;;;;;;;3.53;1.33;;;17.60;78.60;;;15.96;100.00;95848.16;4974738;28;20034;-63
2022/09/09 07:41:13;;;;;;;3.38;1.48;;;17.60;78.90;;;16.06;100.00;95844.91;4994640;28;20080;-63
2022/09/09 07:43:42;;;;;;;5.95;1.65;;;17.70;79.00;;;16.15;100.00;95841.72;5001692;28;20026;-63
2022/09/09 07:46:08;;;;;;;3.78;1.33;;;17.90;78.30;;;16.27;100.00;95843.56;5006115;28;20041;-65
2022/09/09 07:48:35;;;;;;;11.15;2.50;;;18.00;78.60;;;16.34;100.00;95842.41;4986310;28;20120;-64
2022/09/09 07:51:25;;;;;;;8.20;2.00;;;18.10;78.60;;;16.51;100.00;95827.38;4985444;28;20058;-64
2022/09/09 07:53:54;;;;;;;3.13;1.42;;;18.20;78.90;;;16.59;100.00;95825.44;4994163;28;20117;-64
2022/09/09 07:56:23;;;;;;;2.83;1.30;;;18.30;78.30;;;16.64;100.00;95829.00;4983391;28;20087;-64
2022/09/09 07:58:49;;;;;;;4.43;1.52;;;18.40;77.60;;;16.72;100.00;95846.44;5001192;28;20509;-63
2022/09/09 08:01:17;;;;;;;3.05;1.40;;;18.40;77.70;;;16.76;100.00;95842.31;5017867;28;20049;-63
2022/09/09 08:03:47;;;;;;;1.83;1.33;;;18.40;78.10;;;16.79;100.00;95847.16;5008551;28;20112;-63
2022/09/09 08:06:13;;;;;;;3.78;1.50;;;18.40;77.90;;;16.79;100.00;95847.16;5001456;28;20069;-63
2022/09/09 08:08:41;;;;;;;4.07;1.70;;;18.40;77.60;;;16.78;100.00;95856.97;4991140;28;20048;-64
2022/09/09 08:11:10;;;;;;;3.67;1.40;;;18.30;78.10;;;16.78;100.00;95861.47;4993318;28;20526;-63
2022/09/09 08:13:36;;;;;;;5.47;1.65;;;18.30;78.10;;;16.78;100.00;95864.94;4990340;28;20522;-63
2022/09/09 08:16:06;;;;;;;2.88;1.42;;;18.20;78.30;;;16.79;100.00;95868.41;4991063;28;20033;-63
2022/09/09 08:18:32;;;;;;;3.40;1.42;;;18.30;77.70;;;16.78;100.00;95866.78;5003695;28;20030;-66
2022/09/09 08:21:04;;;;;;;2.55;1.50;;;18.40;77.90;;;16.85;100.00;95878.09;5006576;28;20042;-64
2022/09/09 08:23:29;;;;;;;2.78;1.63;;;18.40;77.80;;;16.88;100.00;95877.59;5019616;28;20408;-64
2022/09/09 08:26:03;;;;;;;1.70;1.40;;;18.60;77.10;;;16.95;100.00;95872.97;5007753;28;20125;-64
2022/09/09 08:28:29;;;;;;;3.45;1.50;;;18.60;76.70;;;17.02;100.00;95871.00;4961715;28;20037;-64
2022/09/09 08:30:54;;;;;;;2.33;1.38;;;18.70;76.40;;;17.05;100.00;95867.88;5021158;28;20061;-65
2022/09/09 08:33:21;;;;;;;7.50;1.90;;;18.70;76.40;;;17.13;100.00;95886.09;5001915;28;20550;-67
2022/09/09 08:35:52;;;;;;;2.85;1.58;;;18.80;77.20;;;17.21;100.00;95890.25;4993963;28;20155;-62
2022/09/09 08:38:18;;;;;;;3.38;1.60;;;18.80;76.50;;;17.25;100.00;95882.63;5007013;28;20403;-63
2022/09/09 08:40:45;;;;;;;2.47;1.60;;;19.00;76.00;;;17.30;100.00;95872.88;5000828;28;20035;-64
2022/09/09 08:43:11;;;;;;;5.05;1.73;;;19.00;75.00;;;17.36;100.00;95874.59;5009374;28;20072;-64
2022/09/09 08:45:55;;;;;;;3.58;1.75;;;19.10;75.20;;;17.44;100.00;95876.91;5005554;28;20069;-66
2022/09/09 08:48:47;;;;;;;4.68;1.50;;;19.20;75.50;;;17.49;100.00;95878.03;4986564;28;20360;-63
2022/09/09 08:51:13;;;;;;;3.00;1.40;;;19.10;74.90;;;17.51;100.00;95866.09;5017909;28;20049;-63
2022/09/09 08:53:49;;;;;;;3.72;1.55;;;19.30;74.80;;;17.57;100.00;95865.16;5014509;28;20245;-62
2022/09/09 08:56:21;;;;;;;2.78;1.38;;;19.30;73.80;;;17.61;100.00;95860.97;5005498;28;20107;-64
2022/09/09 08:58:54;;;;;;;3.15;1.48;;;19.40;73.20;;;17.67;100.00;95857.41;5004406;28;20037;-64
2022/09/09 09:01:44;;;;;;;2.53;1.20;;;19.40;73.00;;;17.78;100.00;95862.88;4992720;28;20044;-62
2022/09/09 09:04:46;;;;;;;1.88;1.25;;;19.60;72.40;;;17.89;100.00;95864.69;5023635;28;20046;-63
2022/09/09 09:07:41;;;;;;;3.40;1.20;;;19.70;73.00;;;17.96;100.00;95858.16;5019634;28;20050;-65
2022/09/09 09:10:47;;;;;;;2.25;1.23;;;19.70;72.30;;;18.03;100.00;95853.47;5007737;28;20451;-65
2022/09/09 09:13:38;;;;;;;2.08;1.20;;;19.70;71.70;;;18.13;100.00;95868.81;5010336;28;20034;-66
2022/09/09 09:16:27;;;;;;;2.75;1.30;;;19.90;72.00;;;18.20;100.00;95877.44;5023695;28;20117;-66
2022/09/09 09:18:52;;;;;;;3.67;1.50;;;20.00;72.00;;;18.24;100.00;95875.91;4998995;28;20058;-66
2022/09/09 09:21:44;;;;;;;3.17;1.65;;;20.10;72.10;;;18.31;100.00;95878.38;5010997;28;20033;-66
2022/09/09 09:24:26;;;;;;;2.80;1.25;;;20.10;72.90;;;18.31;100.00;95870.41;5015772;28;20038;-66
2022/09/09 09:26:52;;;;;;;3.50;1.42;;;20.10;72.00;;;18.36;100.00;95873.16;4997180;28;20025;-65
2022/09/09 09:29:19;;;;;;;6.10;1.40;;;20.10;72.30;;;18.41;100.00;95873.25;5031835;28;20040;-64
2022/09/09 09:31:54;;;;;;;3.20;1.58;;;20.20;72.00;;;18.46;100.00;95872.50;5014059;28;20029;-66
2022/09/09 09:34:20;;;;;;;3.72;1.60;;;20.30;71.10;;;18.54;100.00;95869.41;5020451;28;20083;-67
2022/09/09 09:36:56;;;;;;;3.72;2.00;;;20.60;70.30;;;18.72;100.00;95869.19;4998573;28;20034;-67
2022/09/09 09:39:28;;;;;;;4.28;1.90;;;21.00;70.00;;;18.87;100.00;95872.06;4989008;28;20033;-67
2022/09/09 09:41:54;;;;;;;3.00;1.50;;;21.10;69.10;;;19.04;100.00;95868.53;5028992;28;20029;-67
2022/09/09 09:44:27;;;;;;;3.30;1.30;;;21.30;67.60;;;19.19;100.00;95871.38;4990411;28;20041;-67
2022/09/09 09:46:53;;;;;;;3.67;1.40;;;21.40;65.50;;;19.36;100.00;95866.00;5012211;28;20030;-67
2022/09/09 09:49:19;;;;;;;3.22;1.45;;;21.60;64.70;;;19.46;100.00;95871.41;5003254;28;20510;-67
2022/09/09 09:51:44;;;;;;;2.80;1.33;;;21.50;64.70;;;19.50;100.00;95877.88;5010809;28;20030;-67
2022/09/09 09:54:13;;;;;;;2.65;1.20;;;21.40;65.40;;;19.53;99.73;95880.88;4993506;28;20457;-67
2022/09/09 09:56:39;;;;;;;2.85;1.30;;;21.20;65.50;;;19.49;99.89;95871.75;5010772;28;20041;-67
2022/09/09 09:59:05;;;;;;;3.13;1.25;;;21.10;66.30;;;19.47;99.70;95879.19;5000415;28;20510;-67
2022/09/09 10:01:35;;;;;;;3.25;1.02;;;21.00;67.30;;;19.44;100.00;95877.00;5027448;28;20041;-66
2022/09/09 10:04:22;;;;;;;3.42;1.55;;;20.90;67.40;;;19.40;100.00;95875.91;5028843;28;20044;-66
2022/09/09 10:06:49;;;;;;;2.83;1.60;;;20.90;68.70;;;19.39;100.00;95879.63;5010696;28;20061;-67
2022/09/09 10:09:32;;;;;;;3.25;1.65;;;20.90;68.60;;;19.35;100.00;95883.84;5025512;28;21568;-66
2022/09/09 10:12:24;;;;;;;2.35;1.48;;;20.80;68.40;;;19.33;100.00;95883.28;5029325;28;20054;-66
2022/09/09 10:15:21;;;;;;;2.53;1.45;;;20.70;69.20;;;19.28;99.43;95885.91;5022792;28;20570;-67
2022/09/09 10:18:54;;;;;;;2.75;1.40;;;20.70;68.00;;;19.23;100.00;95878.63;5017357;28;20043;-67
2022/09/09 10:21:31;;;;;;;2.85;1.02;;;20.70;68.60;;;19.19;97.78;95876.72;5016123;28;20064;-66
2022/09/09 10:24:19;;;;;;;2.53;1.02;;;20.70;67.00;;;19.18;99.33;95881.25;5027258;28;20045;-66
2022/09/09 10:26:58;;;;;;;2.42;1.08;;;20.70;66.50;;;19.18;99.01;95880.44;5010565;28;20130;-66
2022/09/09 10:29:43;;;;;;;3.03;1.10;;;20.80;66.20;;;19.22;98.61;95873.53;5008695;28;21930;-67
2022/09/09 10:32:37;;;;;;;2.85;1.05;;;20.90;66.40;;;19.31;99.11;95874.75;5019055;28;20041;-67
2022/09/09 10:35:53;;;;;;;2.97;1.45;;;21.10;66.80;;;19.41;96.94;95869.50;5026384;28;20332;-67